sensor_id;sensor_type;location;lat;lon;timestamp;P1;durP1;ratioP1;P2;durP2;ratioP2
78416;SDS011;67715;46.170;6.140;2023-04-15T00:01:28;0.77;;;0.60;;
78416;SDS011;67715;46.170;6.140;2023-04-15T00:03:54;0.70;;;0.60;;
78416;SDS011;67715;46.170;6.140;2023-04-15T00:06:20;2.08;;;0.50;;
78416;SDS011;67715;46.170;6.140;2023-04-15T00:08:46;1.02;;;0.55;;
78416;SDS011;67715;46.170;6.140;2023-04-15T00:11:12;1.98;;;0.50;;
78416;SDS011;67715;46.170;6.140;2023-04-15T00:13:37;2.28;;;0.70;;
78416;SDS011;67715;46.170;6.140;2023-04-15T00:16:03;2.80;;;0.80;;
78416;SDS011;67715;46.170;6.140;2023-04-15T00:18:30;1.17;;;0.77;;
78416;SDS011;67715;46.170;6.140;2023-04-15T00:20:56;1.05;;;0.50;;
78416;SDS011;67715;46.170;6.140;2023-04-15T00:23:21;1.40;;;0.60;;
78416;SDS011;67715;46.170;6.140;2023-04-15T00:25:46;1.48;;;0.50;;
78416;SDS011;67715;46.170;6.140;2023-04-15T00:28:12;1.80;;;1.00;;
78416;SDS011;67715;46.170;6.140;2023-04-15T00:30:37;0.82;;;0.68;;
78416;SDS011;67715;46.170;6.140;2023-04-15T00:33:03;2.08;;;0.73;;
78416;SDS011;67715;46.170;6.140;2023-04-15T00:35:28;2.10;;;1.30;;
78416;SDS011;67715;46.170;6.140;2023-04-15T00:37:56;1.55;;;1.40;;
78416;SDS011;67715;46.170;6.140;2023-04-15T00:40:22;3.28;;;1.17;;
78416;SDS011;67715;46.170;6.140;2023-04-15T00:42:48;1.15;;;0.70;;
78416;SDS011;67715;46.170;6.140;2023-04-15T00:45:13;1.50;;;1.10;;
78416;SDS011;67715;46.170;6.140;2023-04-15T00:47:42;2.53;;;1.10;;
78416;SDS011;67715;46.170;6.140;2023-04-15T00:50:08;1.85;;;1.02;;
78416;SDS011;67715;46.170;6.140;2023-04-15T00:52:34;1.20;;;0.80;;
78416;SDS011;67715;46.170;6.140;2023-04-15T00:55:00;2.10;;;1.03;;
78416;SDS011;67715;46.170;6.140;2023-04-15T00:57:26;2.65;;;1.10;;
78416;SDS011;67715;46.170;6.140;2023-04-15T00:59:52;1.45;;;0.80;;
78416;SDS011;67715;46.170;6.140;2023-04-15T01:02:19;1.33;;;0.93;;
78416;SDS011;67715;46.170;6.140;2023-04-15T01:04:45;2.20;;;0.98;;
78416;SDS011;67715;46.170;6.140;2023-04-15T01:07:11;2.03;;;0.83;;
78416;SDS011;67715;46.170;6.140;2023-04-15T01:09:36;2.20;;;0.80;;
78416;SDS011;67715;46.170;6.140;2023-04-15T01:12:01;1.88;;;0.98;;
78416;SDS011;67715;46.170;6.140;2023-04-15T01:14:28;1.70;;;1.10;;
78416;SDS011;67715;46.170;6.140;2023-04-15T01:16:53;1.20;;;0.70;;
78416;SDS011;67715;46.170;6.140;2023-04-15T01:19:18;1.47;;;0.80;;
78416;SDS011;67715;46.170;6.140;2023-04-15T01:21:44;2.07;;;0.93;;
78416;SDS011;67715;46.170;6.140;2023-04-15T01:24:09;1.45;;;0.85;;
78416;SDS011;67715;46.170;6.140;2023-04-15T01:26:38;1.40;;;0.93;;
78416;SDS011;67715;46.170;6.140;2023-04-15T01:29:04;1.10;;;0.90;;
78416;SDS011;67715;46.170;6.140;2023-04-15T01:31:30;1.15;;;0.75;;
78416;SDS011;67715;46.170;6.140;2023-04-15T01:33:56;2.15;;;1.15;;
78416;SDS011;67715;46.170;6.140;2023-04-15T01:36:22;1.02;;;0.88;;
78416;SDS011;67715;46.170;6.140;2023-04-15T01:38:47;1.40;;;1.07;;
78416;SDS011;67715;46.170;6.140;2023-04-15T01:41:13;1.30;;;0.83;;
78416;SDS011;67715;46.170;6.140;2023-04-15T01:43:38;1.67;;;1.00;;
78416;SDS011;67715;46.170;6.140;2023-04-15T01:46:04;2.27;;;0.83;;
78416;SDS011;67715;46.170;6.140;2023-04-15T01:48:30;2.33;;;1.10;;
78416;SDS011;67715;46.170;6.140;2023-04-15T01:50:56;1.75;;;1.05;;
78416;SDS011;67715;46.170;6.140;2023-04-15T01:53:22;1.08;;;0.80;;
78416;SDS011;67715;46.170;6.140;2023-04-15T01:55:49;1.95;;;1.02;;
78416;SDS011;67715;46.170;6.140;2023-04-15T01:58:14;1.13;;;0.82;;
78416;SDS011;67715;46.170;6.140;2023-04-15T02:00:40;2.13;;;1.00;;
78416;SDS011;67715;46.170;6.140;2023-04-15T02:03:05;3.47;;;1.10;;
78416;SDS011;67715;46.170;6.140;2023-04-15T02:05:31;2.08;;;1.42;;
78416;SDS011;67715;46.170;6.140;2023-04-15T02:07:57;3.50;;;1.20;;
78416;SDS011;67715;46.170;6.140;2023-04-15T02:10:23;3.35;;;1.92;;
78416;SDS011;67715;46.170;6.140;2023-04-15T02:12:48;2.37;;;1.50;;
78416;SDS011;67715;46.170;6.140;2023-04-15T02:15:13;2.10;;;1.37;;
78416;SDS011;67715;46.170;6.140;2023-04-15T02:17:39;1.40;;;0.93;;
78416;SDS011;67715;46.170;6.140;2023-04-15T02:20:05;3.15;;;1.40;;
78416;SDS011;67715;46.170;6.140;2023-04-15T02:22:30;1.70;;;1.20;;
78416;SDS011;67715;46.170;6.140;2023-04-15T02:24:56;3.58;;;1.50;;
78416;SDS011;67715;46.170;6.140;2023-04-15T02:27:21;1.58;;;1.30;;
78416;SDS011;67715;46.170;6.140;2023-04-15T02:29:47;1.63;;;1.20;;
78416;SDS011;67715;46.170;6.140;2023-04-15T02:32:12;2.47;;;1.40;;
78416;SDS011;67715;46.170;6.140;2023-04-15T02:34:38;2.55;;;1.20;;
78416;SDS011;67715;46.170;6.140;2023-04-15T02:37:05;1.85;;;1.40;;
78416;SDS011;67715;46.170;6.140;2023-04-15T02:39:31;3.85;;;1.63;;
78416;SDS011;67715;46.170;6.140;2023-04-15T02:41:56;2.42;;;1.90;;
78416;SDS011;67715;46.170;6.140;2023-04-15T02:44:24;3.38;;;1.52;;
78416;SDS011;67715;46.170;6.140;2023-04-15T02:46:49;4.72;;;1.38;;
78416;SDS011;67715;46.170;6.140;2023-04-15T02:49:16;2.38;;;1.80;;
78416;SDS011;67715;46.170;6.140;2023-04-15T02:51:42;2.60;;;1.38;;
78416;SDS011;67715;46.170;6.140;2023-04-15T02:54:07;3.73;;;1.50;;
78416;SDS011;67715;46.170;6.140;2023-04-15T02:56:33;1.70;;;1.30;;
78416;SDS011;67715;46.170;6.140;2023-04-15T02:58:58;2.63;;;1.17;;
78416;SDS011;67715;46.170;6.140;2023-04-15T03:01:23;2.03;;;1.50;;
78416;SDS011;67715;46.170;6.140;2023-04-15T03:03:50;2.60;;;1.52;;
78416;SDS011;67715;46.170;6.140;2023-04-15T03:06:15;2.50;;;1.70;;
78416;SDS011;67715;46.170;6.140;2023-04-15T03:08:40;4.40;;;1.60;;
78416;SDS011;67715;46.170;6.140;2023-04-15T03:11:06;2.72;;;1.40;;
78416;SDS011;67715;46.170;6.140;2023-04-15T03:13:32;3.38;;;1.52;;
78416;SDS011;67715;46.170;6.140;2023-04-15T03:15:57;3.50;;;1.53;;
78416;SDS011;67715;46.170;6.140;2023-04-15T03:18:22;2.80;;;1.20;;
78416;SDS011;67715;46.170;6.140;2023-04-15T03:20:48;2.10;;;1.40;;
78416;SDS011;67715;46.170;6.140;2023-04-15T03:23:13;1.47;;;0.97;;
78416;SDS011;67715;46.170;6.140;2023-04-15T03:25:38;1.70;;;1.00;;
78416;SDS011;67715;46.170;6.140;2023-04-15T03:28:04;1.67;;;1.30;;
78416;SDS011;67715;46.170;6.140;2023-04-15T03:30:30;2.03;;;1.33;;
78416;SDS011;67715;46.170;6.140;2023-04-15T03:32:55;2.05;;;1.10;;
78416;SDS011;67715;46.170;6.140;2023-04-15T03:35:20;1.73;;;1.10;;
78416;SDS011;67715;46.170;6.140;2023-04-15T03:37:46;1.20;;;0.90;;
78416;SDS011;67715;46.170;6.140;2023-04-15T03:40:13;1.55;;;1.20;;
78416;SDS011;67715;46.170;6.140;2023-04-15T03:42:38;2.03;;;0.90;;
78416;SDS011;67715;46.170;6.140;2023-04-15T03:45:03;2.17;;;1.30;;
78416;SDS011;67715;46.170;6.140;2023-04-15T03:47:29;2.38;;;1.13;;
78416;SDS011;67715;46.170;6.140;2023-04-15T03:49:54;1.20;;;0.90;;
78416;SDS011;67715;46.170;6.140;2023-04-15T03:52:20;1.52;;;1.10;;
78416;SDS011;67715;46.170;6.140;2023-04-15T03:54:45;1.45;;;1.20;;
78416;SDS011;67715;46.170;6.140;2023-04-15T03:57:11;1.70;;;0.90;;
78416;SDS011;67715;46.170;6.140;2023-04-15T03:59:37;1.30;;;0.80;;
78416;SDS011;67715;46.170;6.140;2023-04-15T04:02:02;1.53;;;0.83;;
78416;SDS011;67715;46.170;6.140;2023-04-15T04:04:27;1.07;;;0.70;;
78416;SDS011;67715;46.170;6.140;2023-04-15T04:06:52;1.60;;;0.80;;
78416;SDS011;67715;46.170;6.140;2023-04-15T04:09:18;1.97;;;1.20;;
78416;SDS011;67715;46.170;6.140;2023-04-15T04:11:43;1.63;;;1.10;;
78416;SDS011;67715;46.170;6.140;2023-04-15T04:14:09;2.65;;;1.23;;
78416;SDS011;67715;46.170;6.140;2023-04-15T04:16:34;1.40;;;1.17;;
78416;SDS011;67715;46.170;6.140;2023-04-15T04:19:00;2.00;;;1.40;;
78416;SDS011;67715;46.170;6.140;2023-04-15T04:21:25;1.97;;;1.30;;
78416;SDS011;67715;46.170;6.140;2023-04-15T04:23:50;2.53;;;1.20;;
78416;SDS011;67715;46.170;6.140;2023-04-15T04:26:16;1.87;;;1.00;;
78416;SDS011;67715;46.170;6.140;2023-04-15T04:28:41;2.53;;;1.07;;
78416;SDS011;67715;46.170;6.140;2023-04-15T04:31:06;1.33;;;0.90;;
78416;SDS011;67715;46.170;6.140;2023-04-15T04:33:32;3.10;;;1.10;;
78416;SDS011;67715;46.170;6.140;2023-04-15T04:35:57;4.45;;;1.63;;
78416;SDS011;67715;46.170;6.140;2023-04-15T04:38:23;1.45;;;0.93;;
78416;SDS011;67715;46.170;6.140;2023-04-15T04:40:48;3.08;;;1.48;;
78416;SDS011;67715;46.170;6.140;2023-04-15T04:43:14;1.70;;;1.10;;
78416;SDS011;67715;46.170;6.140;2023-04-15T04:45:40;1.30;;;0.80;;
78416;SDS011;67715;46.170;6.140;2023-04-15T04:48:05;1.15;;;1.00;;
78416;SDS011;67715;46.170;6.140;2023-04-15T04:50:32;1.73;;;1.05;;
78416;SDS011;67715;46.170;6.140;2023-04-15T04:52:58;1.75;;;0.90;;
78416;SDS011;67715;46.170;6.140;2023-04-15T04:55:24;1.58;;;1.00;;
78416;SDS011;67715;46.170;6.140;2023-04-15T04:57:49;2.15;;;1.17;;
78416;SDS011;67715;46.170;6.140;2023-04-15T05:00:15;1.50;;;1.00;;
78416;SDS011;67715;46.170;6.140;2023-04-15T05:02:40;2.03;;;0.77;;
78416;SDS011;67715;46.170;6.140;2023-04-15T05:05:08;1.92;;;0.70;;
78416;SDS011;67715;46.170;6.140;2023-04-15T05:07:33;2.42;;;1.00;;
78416;SDS011;67715;46.170;6.140;2023-04-15T05:09:59;2.53;;;1.45;;
78416;SDS011;67715;46.170;6.140;2023-04-15T05:12:24;1.10;;;1.00;;
78416;SDS011;67715;46.170;6.140;2023-04-15T05:14:50;1.50;;;1.00;;
78416;SDS011;67715;46.170;6.140;2023-04-15T05:17:15;1.67;;;0.90;;
78416;SDS011;67715;46.170;6.140;2023-04-15T05:19:41;3.10;;;1.07;;
78416;SDS011;67715;46.170;6.140;2023-04-15T05:22:06;1.33;;;0.90;;
78416;SDS011;67715;46.170;6.140;2023-04-15T05:24:32;1.10;;;1.00;;
78416;SDS011;67715;46.170;6.140;2023-04-15T05:26:57;1.67;;;1.37;;
78416;SDS011;67715;46.170;6.140;2023-04-15T05:29:22;1.20;;;0.90;;
78416;SDS011;67715;46.170;6.140;2023-04-15T05:31:48;1.97;;;1.00;;
78416;SDS011;67715;46.170;6.140;2023-04-15T05:34:13;1.77;;;1.07;;
78416;SDS011;67715;46.170;6.140;2023-04-15T05:36:40;1.95;;;0.90;;
78416;SDS011;67715;46.170;6.140;2023-04-15T05:39:05;2.83;;;1.17;;
78416;SDS011;67715;46.170;6.140;2023-04-15T05:41:31;1.90;;;0.90;;
78416;SDS011;67715;46.170;6.140;2023-04-15T05:43:56;1.45;;;0.95;;
78416;SDS011;67715;46.170;6.140;2023-04-15T05:46:21;2.27;;;1.20;;
78416;SDS011;67715;46.170;6.140;2023-04-15T05:48:47;1.13;;;0.70;;
78416;SDS011;67715;46.170;6.140;2023-04-15T05:51:12;1.93;;;0.70;;
78416;SDS011;67715;46.170;6.140;2023-04-15T05:53:37;1.77;;;0.70;;
78416;SDS011;67715;46.170;6.140;2023-04-15T05:56:05;1.15;;;0.63;;
78416;SDS011;67715;46.170;6.140;2023-04-15T05:58:30;1.05;;;0.73;;
78416;SDS011;67715;46.170;6.140;2023-04-15T06:00:55;1.73;;;0.93;;
78416;SDS011;67715;46.170;6.140;2023-04-15T06:03:21;1.30;;;0.80;;
78416;SDS011;67715;46.170;6.140;2023-04-15T06:05:46;1.98;;;0.60;;
78416;SDS011;67715;46.170;6.140;2023-04-15T06:08:12;0.90;;;0.60;;
78416;SDS011;67715;46.170;6.140;2023-04-15T06:10:37;1.08;;;0.70;;
78416;SDS011;67715;46.170;6.140;2023-04-15T06:13:03;2.43;;;0.50;;
78416;SDS011;67715;46.170;6.140;2023-04-15T06:15:28;0.50;;;0.40;;
78416;SDS011;67715;46.170;6.140;2023-04-15T06:17:54;0.73;;;0.03;;
78416;SDS011;67715;46.170;6.140;2023-04-15T06:20:19;0.80;;;0.13;;
78416;SDS011;67715;46.170;6.140;2023-04-15T06:22:45;0.17;;;0.10;;
78416;SDS011;67715;46.170;6.140;2023-04-15T06:25:10;0.13;;;0.10;;
78416;SDS011;67715;46.170;6.140;2023-04-15T06:27:36;0.35;;;0.35;;
78416;SDS011;67715;46.170;6.140;2023-04-15T06:30:01;0.10;;;0.08;;
78416;SDS011;67715;46.170;6.140;2023-04-15T06:32:27;0.77;;;0.40;;
78416;SDS011;67715;46.170;6.140;2023-04-15T06:34:52;0.52;;;0.10;;
78416;SDS011;67715;46.170;6.140;2023-04-15T06:37:17;0.20;;;0.10;;
78416;SDS011;67715;46.170;6.140;2023-04-15T06:39:42;0.00;;;0.00;;
78416;SDS011;67715;46.170;6.140;2023-04-15T06:42:08;0.05;;;0.00;;
78416;SDS011;67715;46.170;6.140;2023-04-15T06:44:37;0.10;;;0.10;;
78416;SDS011;67715;46.170;6.140;2023-04-15T06:47:02;0.52;;;0.20;;
78416;SDS011;67715;46.170;6.140;2023-04-15T06:49:28;0.75;;;0.10;;
78416;SDS011;67715;46.170;6.140;2023-04-15T06:51:53;0.95;;;0.30;;
78416;SDS011;67715;46.170;6.140;2023-04-15T06:54:19;0.68;;;0.30;;
78416;SDS011;67715;46.170;6.140;2023-04-15T06:56:44;0.20;;;0.20;;
78416;SDS011;67715;46.170;6.140;2023-04-15T06:59:10;0.43;;;0.30;;
78416;SDS011;67715;46.170;6.140;2023-04-15T07:01:35;1.23;;;0.20;;
78416;SDS011;67715;46.170;6.140;2023-04-15T07:04:00;0.23;;;0.20;;
78416;SDS011;67715;46.170;6.140;2023-04-15T07:06:26;1.47;;;0.23;;
78416;SDS011;67715;46.170;6.140;2023-04-15T07:08:51;0.40;;;0.20;;
78416;SDS011;67715;46.170;6.140;2023-04-15T07:11:17;0.55;;;0.30;;
78416;SDS011;67715;46.170;6.140;2023-04-15T07:13:42;0.60;;;0.40;;
78416;SDS011;67715;46.170;6.140;2023-04-15T07:16:07;0.23;;;0.17;;
78416;SDS011;67715;46.170;6.140;2023-04-15T07:18:33;0.80;;;0.20;;
78416;SDS011;67715;46.170;6.140;2023-04-15T07:20:58;0.55;;;0.40;;
78416;SDS011;67715;46.170;6.140;2023-04-15T07:23:24;0.63;;;0.30;;
78416;SDS011;67715;46.170;6.140;2023-04-15T07:25:49;0.50;;;0.50;;
78416;SDS011;67715;46.170;6.140;2023-04-15T07:28:16;1.42;;;1.00;;
78416;SDS011;67715;46.170;6.140;2023-04-15T07:30:41;2.47;;;1.70;;
78416;SDS011;67715;46.170;6.140;2023-04-15T07:33:06;1.50;;;0.60;;
78416;SDS011;67715;46.170;6.140;2023-04-15T07:35:32;0.93;;;0.37;;
78416;SDS011;67715;46.170;6.140;2023-04-15T07:37:57;0.10;;;0.10;;
78416;SDS011;67715;46.170;6.140;2023-04-15T07:40:22;1.07;;;0.30;;
78416;SDS011;67715;46.170;6.140;2023-04-15T07:42:48;1.03;;;0.20;;
78416;SDS011;67715;46.170;6.140;2023-04-15T07:45:13;0.20;;;0.20;;
78416;SDS011;67715;46.170;6.140;2023-04-15T07:47:39;1.30;;;0.52;;
78416;SDS011;67715;46.170;6.140;2023-04-15T07:50:06;0.80;;;0.30;;
78416;SDS011;67715;46.170;6.140;2023-04-15T07:52:31;0.63;;;0.30;;
78416;SDS011;67715;46.170;6.140;2023-04-15T07:55:03;0.25;;;0.20;;
78416;SDS011;67715;46.170;6.140;2023-04-15T07:57:30;0.70;;;0.50;;
78416;SDS011;67715;46.170;6.140;2023-04-15T07:59:55;1.10;;;0.50;;
78416;SDS011;67715;46.170;6.140;2023-04-15T08:02:20;0.73;;;0.40;;
78416;SDS011;67715;46.170;6.140;2023-04-15T08:04:46;0.40;;;0.38;;
78416;SDS011;67715;46.170;6.140;2023-04-15T08:07:11;1.02;;;0.40;;
78416;SDS011;67715;46.170;6.140;2023-04-15T08:09:37;0.30;;;0.30;;
78416;SDS011;67715;46.170;6.140;2023-04-15T08:12:02;0.20;;;0.20;;
78416;SDS011;67715;46.170;6.140;2023-04-15T08:14:28;1.77;;;0.40;;
78416;SDS011;67715;46.170;6.140;2023-04-15T08:16:53;0.45;;;0.30;;
78416;SDS011;67715;46.170;6.140;2023-04-15T08:19:18;0.97;;;0.50;;
78416;SDS011;67715;46.170;6.140;2023-04-15T08:21:44;0.25;;;0.17;;
78416;SDS011;67715;46.170;6.140;2023-04-15T08:24:10;0.30;;;0.20;;
78416;SDS011;67715;46.170;6.140;2023-04-15T08:26:35;1.58;;;0.30;;
78416;SDS011;67715;46.170;6.140;2023-04-15T08:29:00;0.57;;;0.37;;
78416;SDS011;67715;46.170;6.140;2023-04-15T08:31:26;0.60;;;0.23;;
78416;SDS011;67715;46.170;6.140;2023-04-15T08:33:53;0.25;;;0.13;;
78416;SDS011;67715;46.170;6.140;2023-04-15T08:36:20;1.13;;;0.30;;
78416;SDS011;67715;46.170;6.140;2023-04-15T08:38:46;0.30;;;0.20;;
78416;SDS011;67715;46.170;6.140;2023-04-15T08:41:17;0.40;;;0.13;;
78416;SDS011;67715;46.170;6.140;2023-04-15T08:44:00;0.08;;;0.08;;
78416;SDS011;67715;46.170;6.140;2023-04-15T08:46:29;0.43;;;0.30;;
78416;SDS011;67715;46.170;6.140;2023-04-15T08:48:55;1.10;;;0.10;;
78416;SDS011;67715;46.170;6.140;2023-04-15T08:51:21;0.10;;;0.10;;
78416;SDS011;67715;46.170;6.140;2023-04-15T08:53:47;0.20;;;0.10;;
78416;SDS011;67715;46.170;6.140;2023-04-15T08:56:13;0.03;;;0.00;;
78416;SDS011;67715;46.170;6.140;2023-04-15T08:58:40;0.20;;;0.05;;
78416;SDS011;67715;46.170;6.140;2023-04-15T09:01:07;0.20;;;0.05;;
78416;SDS011;67715;46.170;6.140;2023-04-15T09:03:33;0.10;;;0.10;;
78416;SDS011;67715;46.170;6.140;2023-04-15T09:05:58;1.30;;;0.50;;
78416;SDS011;67715;46.170;6.140;2023-04-15T09:08:24;2.83;;;0.50;;
78416;SDS011;67715;46.170;6.140;2023-04-15T09:10:49;1.50;;;0.50;;
78416;SDS011;67715;46.170;6.140;2023-04-15T09:13:15;1.00;;;0.60;;
78416;SDS011;67715;46.170;6.140;2023-04-15T09:15:40;0.82;;;0.73;;
78416;SDS011;67715;46.170;6.140;2023-04-15T09:18:06;0.30;;;0.20;;
78416;SDS011;67715;46.170;6.140;2023-04-15T09:20:41;0.77;;;0.60;;
78416;SDS011;67715;46.170;6.140;2023-04-15T09:23:13;0.38;;;0.30;;
78416;SDS011;67715;46.170;6.140;2023-04-15T09:25:39;0.08;;;0.08;;
78416;SDS011;67715;46.170;6.140;2023-04-15T09:28:08;1.45;;;0.77;;
78416;SDS011;67715;46.170;6.140;2023-04-15T09:30:35;2.00;;;1.17;;
78416;SDS011;67715;46.170;6.140;2023-04-15T09:33:01;0.90;;;0.52;;
78416;SDS011;67715;46.170;6.140;2023-04-15T09:35:28;0.30;;;0.10;;
78416;SDS011;67715;46.170;6.140;2023-04-15T09:38:01;1.00;;;0.80;;
78416;SDS011;67715;46.170;6.140;2023-04-15T09:40:32;0.93;;;0.50;;
78416;SDS011;67715;46.170;6.140;2023-04-15T09:43:04;0.50;;;0.30;;
78416;SDS011;67715;46.170;6.140;2023-04-15T09:45:31;0.38;;;0.35;;
78416;SDS011;67715;46.170;6.140;2023-04-15T09:47:57;0.73;;;0.28;;
78416;SDS011;67715;46.170;6.140;2023-04-15T09:50:26;1.65;;;0.80;;
78416;SDS011;67715;46.170;6.140;2023-04-15T09:52:53;0.90;;;0.50;;
78416;SDS011;67715;46.170;6.140;2023-04-15T09:55:19;0.57;;;0.38;;
78416;SDS011;67715;46.170;6.140;2023-04-15T09:57:45;0.20;;;0.10;;
78416;SDS011;67715;46.170;6.140;2023-04-15T10:00:11;0.80;;;0.30;;
78416;SDS011;67715;46.170;6.140;2023-04-15T10:02:38;0.73;;;0.50;;
78416;SDS011;67715;46.170;6.140;2023-04-15T10:05:04;0.85;;;0.80;;
78416;SDS011;67715;46.170;6.140;2023-04-15T10:07:31;1.55;;;0.40;;
78416;SDS011;67715;46.170;6.140;2023-04-15T10:09:56;4.00;;;0.65;;
78416;SDS011;67715;46.170;6.140;2023-04-15T10:12:23;0.93;;;0.38;;
78416;SDS011;67715;46.170;6.140;2023-04-15T10:14:52;0.35;;;0.30;;
78416;SDS011;67715;46.170;6.140;2023-04-15T10:17:22;0.60;;;0.40;;
78416;SDS011;67715;46.170;6.140;2023-04-15T10:19:53;0.68;;;0.40;;
78416;SDS011;67715;46.170;6.140;2023-04-15T10:22:20;0.60;;;0.50;;
78416;SDS011;67715;46.170;6.140;2023-04-15T10:24:46;0.82;;;0.57;;
78416;SDS011;67715;46.170;6.140;2023-04-15T10:27:12;2.60;;;0.60;;
78416;SDS011;67715;46.170;6.140;2023-04-15T10:29:38;0.32;;;0.32;;
78416;SDS011;67715;46.170;6.140;2023-04-15T10:32:04;0.55;;;0.40;;
78416;SDS011;67715;46.170;6.140;2023-04-15T10:34:29;0.63;;;0.30;;
78416;SDS011;67715;46.170;6.140;2023-04-15T10:36:55;0.30;;;0.20;;
78416;SDS011;67715;46.170;6.140;2023-04-15T10:39:37;0.77;;;0.50;;
78416;SDS011;67715;46.170;6.140;2023-04-15T10:42:07;1.27;;;0.43;;
78416;SDS011;67715;46.170;6.140;2023-04-15T10:44:37;0.55;;;0.30;;
78416;SDS011;67715;46.170;6.140;2023-04-15T10:47:10;0.88;;;0.50;;
78416;SDS011;67715;46.170;6.140;2023-04-15T10:49:50;0.77;;;0.63;;
78416;SDS011;67715;46.170;6.140;2023-04-15T10:52:17;0.77;;;0.40;;
78416;SDS011;67715;46.170;6.140;2023-04-15T10:54:46;0.47;;;0.45;;
78416;SDS011;67715;46.170;6.140;2023-04-15T10:57:16;0.55;;;0.20;;
78416;SDS011;67715;46.170;6.140;2023-04-15T10:59:59;0.20;;;0.20;;
78416;SDS011;67715;46.170;6.140;2023-04-15T11:05:47;0.63;;;0.30;;
78416;SDS011;67715;46.170;6.140;2023-04-15T11:08:13;0.60;;;0.28;;
78416;SDS011;67715;46.170;6.140;2023-04-15T11:13:13;0.47;;;0.35;;
78416;SDS011;67715;46.170;6.140;2023-04-15T11:15:42;0.52;;;0.40;;
78416;SDS011;67715;46.170;6.140;2023-04-15T11:18:18;0.50;;;0.30;;
78416;SDS011;67715;46.170;6.140;2023-04-15T11:20:51;0.45;;;0.35;;
78416;SDS011;67715;46.170;6.140;2023-04-15T11:26:06;1.00;;;0.40;;
78416;SDS011;67715;46.170;6.140;2023-04-15T11:28:39;1.75;;;0.32;;
78416;SDS011;67715;46.170;6.140;2023-04-15T11:31:06;0.70;;;0.50;;
78416;SDS011;67715;46.170;6.140;2023-04-15T11:33:35;0.60;;;0.40;;
78416;SDS011;67715;46.170;6.140;2023-04-15T11:36:01;0.95;;;0.40;;
78416;SDS011;67715;46.170;6.140;2023-04-15T11:38:28;0.88;;;0.32;;
78416;SDS011;67715;46.170;6.140;2023-04-15T11:40:53;0.50;;;0.22;;
78416;SDS011;67715;46.170;6.140;2023-04-15T11:43:19;0.20;;;0.20;;
78416;SDS011;67715;46.170;6.140;2023-04-15T11:46:07;0.13;;;0.10;;
78416;SDS011;67715;46.170;6.140;2023-04-15T11:48:33;0.03;;;0.03;;
78416;SDS011;67715;46.170;6.140;2023-04-15T11:51:03;0.30;;;0.25;;
78416;SDS011;67715;46.170;6.140;2023-04-15T11:53:43;0.88;;;0.50;;
78416;SDS011;67715;46.170;6.140;2023-04-15T11:56:20;0.82;;;0.32;;
78416;SDS011;67715;46.170;6.140;2023-04-15T11:58:46;0.60;;;0.43;;
78416;SDS011;67715;46.170;6.140;2023-04-15T12:01:13;0.50;;;0.30;;
78416;SDS011;67715;46.170;6.140;2023-04-15T12:03:41;0.67;;;0.30;;
78416;SDS011;67715;46.170;6.140;2023-04-15T12:11:19;0.50;;;0.13;;
78416;SDS011;67715;46.170;6.140;2023-04-15T12:13:55;0.32;;;0.20;;
78416;SDS011;67715;46.170;6.140;2023-04-15T12:16:21;0.63;;;0.20;;
78416;SDS011;67715;46.170;6.140;2023-04-15T12:18:54;0.17;;;0.13;;
78416;SDS011;67715;46.170;6.140;2023-04-15T12:21:21;0.10;;;0.10;;
78416;SDS011;67715;46.170;6.140;2023-04-15T12:23:51;1.30;;;0.50;;
78416;SDS011;67715;46.170;6.140;2023-04-15T12:26:24;0.88;;;0.50;;
78416;SDS011;67715;46.170;6.140;2023-04-15T12:28:54;0.68;;;0.40;;
78416;SDS011;67715;46.170;6.140;2023-04-15T12:31:21;0.50;;;0.20;;
78416;SDS011;67715;46.170;6.140;2023-04-15T12:33:47;0.70;;;0.40;;
78416;SDS011;67715;46.170;6.140;2023-04-15T12:36:13;1.35;;;0.20;;
78416;SDS011;67715;46.170;6.140;2023-04-15T12:38:39;2.15;;;0.20;;
78416;SDS011;67715;46.170;6.140;2023-04-15T12:41:04;0.80;;;0.50;;
78416;SDS011;67715;46.170;6.140;2023-04-15T12:43:30;0.40;;;0.30;;
78416;SDS011;67715;46.170;6.140;2023-04-15T12:45:55;4.73;;;2.97;;
78416;SDS011;67715;46.170;6.140;2023-04-15T12:48:20;0.83;;;0.30;;
78416;SDS011;67715;46.170;6.140;2023-04-15T12:50:46;0.70;;;0.70;;
78416;SDS011;67715;46.170;6.140;2023-04-15T12:53:11;0.30;;;0.10;;
78416;SDS011;67715;46.170;6.140;2023-04-15T12:55:37;0.85;;;0.40;;
78416;SDS011;67715;46.170;6.140;2023-04-15T12:58:02;1.95;;;0.60;;
78416;SDS011;67715;46.170;6.140;2023-04-15T13:00:27;1.37;;;0.53;;
78416;SDS011;67715;46.170;6.140;2023-04-15T13:02:53;0.10;;;0.10;;
78416;SDS011;67715;46.170;6.140;2023-04-15T13:05:18;0.52;;;0.32;;
78416;SDS011;67715;46.170;6.140;2023-04-15T13:07:43;0.50;;;0.30;;
78416;SDS011;67715;46.170;6.140;2023-04-15T13:10:09;1.00;;;0.17;;
78416;SDS011;67715;46.170;6.140;2023-04-15T13:12:34;5.45;;;2.70;;
78416;SDS011;67715;46.170;6.140;2023-04-15T13:15:01;1.30;;;0.60;;
78416;SDS011;67715;46.170;6.140;2023-04-15T13:17:26;0.77;;;0.40;;
78416;SDS011;67715;46.170;6.140;2023-04-15T13:19:52;0.40;;;0.10;;
78416;SDS011;67715;46.170;6.140;2023-04-15T13:22:17;0.30;;;0.10;;
78416;SDS011;67715;46.170;6.140;2023-04-15T13:24:42;0.40;;;0.40;;
78416;SDS011;67715;46.170;6.140;2023-04-15T13:27:08;0.17;;;0.10;;
78416;SDS011;67715;46.170;6.140;2023-04-15T13:29:33;0.60;;;0.30;;
78416;SDS011;67715;46.170;6.140;2023-04-15T13:31:58;0.00;;;0.00;;
78416;SDS011;67715;46.170;6.140;2023-04-15T13:34:25;0.28;;;0.10;;
78416;SDS011;67715;46.170;6.140;2023-04-15T13:36:50;0.20;;;0.10;;
78416;SDS011;67715;46.170;6.140;2023-04-15T13:39:15;0.47;;;0.30;;
78416;SDS011;67715;46.170;6.140;2023-04-15T13:41:41;0.55;;;0.25;;
78416;SDS011;67715;46.170;6.140;2023-04-15T13:44:06;0.30;;;0.17;;
78416;SDS011;67715;46.170;6.140;2023-04-15T13:46:31;1.57;;;0.20;;
78416;SDS011;67715;46.170;6.140;2023-04-15T13:48:57;0.40;;;0.20;;
78416;SDS011;67715;46.170;6.140;2023-04-15T13:51:22;0.40;;;0.40;;
78416;SDS011;67715;46.170;6.140;2023-04-15T13:53:48;0.30;;;0.20;;
78416;SDS011;67715;46.170;6.140;2023-04-15T13:56:13;0.30;;;0.10;;
78416;SDS011;67715;46.170;6.140;2023-04-15T13:58:38;0.63;;;0.30;;
78416;SDS011;67715;46.170;6.140;2023-04-15T14:01:04;1.40;;;0.50;;
78416;SDS011;67715;46.170;6.140;2023-04-15T14:03:31;0.55;;;0.10;;
78416;SDS011;67715;46.170;6.140;2023-04-15T14:05:57;0.00;;;0.00;;
78416;SDS011;67715;46.170;6.140;2023-04-15T14:08:23;1.00;;;0.35;;
78416;SDS011;67715;46.170;6.140;2023-04-15T14:10:49;0.90;;;0.20;;
78416;SDS011;67715;46.170;6.140;2023-04-15T14:13:15;0.63;;;0.20;;
78416;SDS011;67715;46.170;6.140;2023-04-15T14:15:40;0.00;;;0.00;;
78416;SDS011;67715;46.170;6.140;2023-04-15T14:18:06;0.10;;;0.10;;
78416;SDS011;67715;46.170;6.140;2023-04-15T14:20:31;0.20;;;0.20;;
78416;SDS011;67715;46.170;6.140;2023-04-15T14:22:56;0.20;;;0.20;;
78416;SDS011;67715;46.170;6.140;2023-04-15T14:25:22;0.30;;;0.10;;
78416;SDS011;67715;46.170;6.140;2023-04-15T14:27:47;1.30;;;0.30;;
78416;SDS011;67715;46.170;6.140;2023-04-15T14:30:12;0.87;;;0.70;;
78416;SDS011;67715;46.170;6.140;2023-04-15T14:32:38;0.65;;;0.30;;
78416;SDS011;67715;46.170;6.140;2023-04-15T14:35:03;1.92;;;0.80;;
78416;SDS011;67715;46.170;6.140;2023-04-15T14:37:29;0.10;;;0.10;;
78416;SDS011;67715;46.170;6.140;2023-04-15T14:39:54;0.20;;;0.10;;
78416;SDS011;67715;46.170;6.140;2023-04-15T14:42:20;1.10;;;0.30;;
78416;SDS011;67715;46.170;6.140;2023-04-15T14:44:45;0.70;;;0.00;;
78416;SDS011;67715;46.170;6.140;2023-04-15T14:47:10;0.10;;;0.10;;
78416;SDS011;67715;46.170;6.140;2023-04-15T14:49:36;0.17;;;0.17;;
78416;SDS011;67715;46.170;6.140;2023-04-15T14:52:01;0.20;;;0.10;;
78416;SDS011;67715;46.170;6.140;2023-04-15T14:54:27;0.10;;;0.10;;
78416;SDS011;67715;46.170;6.140;2023-04-15T14:56:52;0.33;;;0.10;;